Time;durP1;ratioP1;P1;durP2;ratioP2;P2;SDS_P1;SDS_P2;PMS_P1;PMS_P2;Temp;Humidity;BMP_temperature;BMP_pressure;BME280_temperature;BME280_humidity;BME280_pressure;Samples;Min_cycle;Max_cycle;Signal;HPM_P1;HPM_P2
2022/10/14 05:24:46;;;;;;;;;20.75;19.00;;;;;;;;5104989;27;13397;-72
2022/10/14 05:27:11;;;;;;;;;22.50;20.00;;;;;;;;5108073;28;11497;-73
2022/10/14 05:29:37;;;;;;;;;18.25;15.50;;;;;;;;5108389;28;8819;-74
2022/10/14 05:32:02;;;;;;;;;20.75;16.75;;;;;;;;5107709;28;9568;-75
2022/10/14 05:34:28;;;;;;;;;17.75;15.00;;;;;;;;5108260;28;8826;-71
2022/10/14 05:36:53;;;;;;;;;16.25;14.00;;;;;;;;5108058;28;8891;-67
2022/10/14 05:39:18;;;;;;;;;20.00;19.75;;;;;;;;5107958;28;8859;-68
2022/10/14 05:41:43;;;;;;;;;23.25;17.50;;;;;;;;5108659;27;8911;-68
2022/10/14 05:44:12;;;;;;;;;19.75;19.75;;;;;;;;5128807;27;8789;-68
2022/10/14 05:46:37;;;;;;;;;17.50;15.75;;;;;;;;5128596;27;8928;-75
2022/10/14 05:49:04;;;;;;;;;25.50;20.50;;;;;;;;5128296;27;11464;-68
2022/10/14 05:51:30;;;;;;;;;16.25;15.75;;;;;;;;5128417;27;8881;-69
2022/10/14 05:53:55;;;;;;;;;23.25;19.75;;;;;;;;5128116;27;11465;-70
2022/10/14 05:56:20;;;;;;;;;19.00;18.25;;;;;;;;5128243;27;8773;-72
2022/10/14 05:58:46;;;;;;;;;20.50;17.00;;;;;;;;5113688;27;8883;-69
2022/10/14 06:01:11;;;;;;;;;18.50;15.25;;;;;;;;5085932;28;8802;-69
2022/10/14 06:03:37;;;;;;;;;18.25;15.50;;;;;;;;5087071;28;8814;-68
2022/10/14 06:06:02;;;;;;;;;15.50;15.50;;;;;;;;5087105;28;8808;-69
2022/10/14 06:08:27;;;;;;;;;16.25;16.25;;;;;;;;5087035;28;9748;-69
2022/10/14 06:10:53;;;;;;;;;21.00;17.75;;;;;;;;5085614;28;8794;-70
2022/10/14 06:13:19;;;;;;;;;10.00;7.25;;;;;;;;5117585;27;8801;-69
2022/10/14 06:15:44;;;;;;;;;22.50;16.50;;;;;;;;5127736;27;8774;-68
2022/10/14 06:18:10;;;;;;;;;23.50;19.50;;;;;;;;5127674;27;8777;-69
2022/10/14 06:20:35;;;;;;;;;24.25;20.25;;;;;;;;5127792;27;8762;-75
2022/10/14 06:23:01;;;;;;;;;19.50;16.50;;;;;;;;5126474;27;8852;-72
2022/10/14 06:25:27;;;;;;;;;21.75;21.00;;;;;;;;5125986;27;8797;-70
2022/10/14 06:27:52;;;;;;;;;26.00;21.50;;;;;;;;5127456;27;8786;-72
2022/10/14 06:30:17;;;;;;;;;20.50;20.50;;;;;;;;5127455;27;8797;-73
2022/10/14 06:32:43;;;;;;;;;22.25;22.00;;;;;;;;5126062;27;8939;-71
2022/10/14 06:35:08;;;;;;;;;29.75;24.75;;;;;;;;5119203;27;8777;-73
2022/10/14 06:37:34;;;;;;;;;22.75;20.75;;;;;;;;5113273;28;8797;-68
2022/10/14 06:39:59;;;;;;;;;26.25;21.00;;;;;;;;5113398;28;8873;-67
2022/10/14 06:42:24;;;;;;;;;26.00;17.50;;;;;;;;5111703;28;8881;-70
2022/10/14 06:44:50;;;;;;;;;24.25;21.00;;;;;;;;5112027;28;8917;-69
2022/10/14 06:47:15;;;;;;;;;26.75;22.50;;;;;;;;5112047;28;8824;-69
2022/10/14 06:49:40;;;;;;;;;22.75;21.25;;;;;;;;5113542;28;8877;-69
2022/10/14 06:52:06;;;;;;;;;25.50;20.25;;;;;;;;5113293;28;8778;-70
2022/10/14 06:54:31;;;;;;;;;28.50;21.25;;;;;;;;5113450;28;8781;-69
2022/10/14 06:56:57;;;;;;;;;25.00;21.50;;;;;;;;5111916;28;8832;-69
2022/10/14 06:59:22;;;;;;;;;22.75;22.75;;;;;;;;5113504;28;9523;-69
2022/10/14 07:01:47;;;;;;;;;22.50;22.50;;;;;;;;5111915;28;8809;-68
2022/10/14 07:04:13;;;;;;;;;27.50;21.75;;;;;;;;5112660;28;8813;-68
2022/10/14 07:06:38;;;;;;;;;21.75;21.00;;;;;;;;5113198;28;8820;-71
2022/10/14 07:09:03;;;;;;;;;25.75;19.50;;;;;;;;5113116;28;8870;-71
2022/10/14 07:11:29;;;;;;;;;21.75;20.25;;;;;;;;5113088;28;8799;-68
2022/10/14 07:13:55;;;;;;;;;18.00;16.00;;;;;;;;5113083;27;8793;-69
2022/10/14 07:16:20;;;;;;;;;20.00;19.00;;;;;;;;5112924;28;8785;-70
2022/10/14 07:18:46;;;;;;;;;24.50;18.75;;;;;;;;5112998;27;8785;-68
2022/10/14 07:21:11;;;;;;;;;26.50;20.50;;;;;;;;5112641;28;8801;-68
2022/10/14 07:23:36;;;;;;;;;20.75;18.00;;;;;;;;5113187;28;8863;-68
2022/10/14 07:26:02;;;;;;;;;18.25;18.00;;;;;;;;5112756;28;9520;-69
2022/10/14 07:28:27;;;;;;;;;24.00;20.50;;;;;;;;5112302;28;8810;-68
2022/10/14 07:30:59;;;;;;;;;23.00;20.75;;;;;;;;5112345;28;8858;-68
2022/10/14 07:33:25;;;;;;;;;23.00;20.00;;;;;;;;5091002;28;9680;-70
2022/10/14 07:35:50;;;;;;;;;23.00;21.00;;;;;;;;5090530;28;11527;-69
2022/10/14 07:38:15;;;;;;;;;22.25;20.25;;;;;;;;5091298;28;8788;-70
2022/10/14 07:40:41;;;;;;;;;21.25;20.00;;;;;;;;5076544;28;8843;-68
2022/10/14 07:43:06;;;;;;;;;24.00;19.00;;;;;;;;5098339;28;8940;-71
2022/10/14 07:45:34;;;;;;;;;25.50;23.50;;;;;;;;5111792;28;8785;-72
2022/10/14 07:48:00;;;;;;;;;29.50;21.00;;;;;;;;5111231;28;8797;-71
2022/10/14 07:50:25;;;;;;;;;30.50;20.50;;;;;;;;5111747;28;11468;-71
2022/10/14 07:52:51;;;;;;;;;30.00;23.75;;;;;;;;5111542;28;8833;-71
2022/10/14 07:55:16;;;;;;;;;57.50;48.00;;;;;;;;5109996;28;8785;-70
2022/10/14 07:57:42;;;;;;;;;28.25;23.75;;;;;;;;5111680;28;8797;-69
2022/10/14 08:00:07;;;;;;;;;62.50;50.00;;;;;;;;5111582;28;8813;-69
2022/10/14 08:02:33;;;;;;;;;23.00;19.25;;;;;;;;5110495;28;8809;-68
2022/10/14 08:04:59;;;;;;;;;24.75;19.25;;;;;;;;5111732;28;8777;-69
2022/10/14 08:07:25;;;;;;;;;24.25;20.00;;;;;;;;5111156;28;8805;-69
2022/10/14 08:09:52;;;;;;;;;21.00;21.00;;;;;;;;5111179;28;8789;-69
2022/10/14 08:12:18;;;;;;;;;25.75;23.00;;;;;;;;5111472;28;10535;-71
2022/10/14 08:14:43;;;;;;;;;23.50;22.75;;;;;;;;5111390;28;10584;-70
2022/10/14 08:17:08;;;;;;;;;26.00;23.00;;;;;;;;5111160;28;8869;-68
2022/10/14 08:19:35;;;;;;;;;23.75;23.75;;;;;;;;5111322;28;8806;-68
2022/10/14 08:22:00;;;;;;;;;23.75;22.00;;;;;;;;5111214;28;8785;-68
2022/10/14 08:24:26;;;;;;;;;25.25;23.00;;;;;;;;5111170;28;11456;-68
2022/10/14 08:26:53;;;;;;;;;25.50;21.50;;;;;;;;5111267;28;8782;-68
2022/10/14 08:29:18;;;;;;;;;27.50;22.50;;;;;;;;5110907;28;8801;-68
2022/10/14 08:31:44;;;;;;;;;25.50;25.25;;;;;;;;5111005;28;11637;-68
2022/10/14 08:34:10;;;;;;;;;31.50;27.75;;;;;;;;5111230;28;8832;-69
2022/10/14 08:36:35;;;;;;;;;28.00;23.50;;;;;;;;5109826;28;8832;-68
2022/10/14 08:39:01;;;;;;;;;27.25;26.25;;;;;;;;5110458;28;8785;-68
2022/10/14 08:41:45;;;;;;;;;23.00;22.00;;;;;;;;5110550;28;8860;-68
2022/10/14 08:44:13;;;;;;;;;49.25;39.00;;;;;;;;5110951;28;8804;-69
2022/10/14 08:46:41;;;;;;;;;29.00;25.00;;;;;;;;5110921;28;11491;-69
2022/10/14 08:49:25;;;;;;;;;38.00;35.25;;;;;;;;5110653;28;11467;-68
2022/10/14 08:51:53;;;;;;;;;27.25;25.25;;;;;;;;5109386;28;11424;-69
2022/10/14 08:54:31;;;;;;;;;32.50;26.75;;;;;;;;5110352;28;10990;-69
2022/10/14 08:56:56;;;;;;;;;25.00;23.25;;;;;;;;5110687;28;10928;-69
2022/10/14 08:59:22;;;;;;;;;33.50;30.50;;;;;;;;5109986;28;10669;-70
2022/10/14 09:01:52;;;;;;;;;27.00;23.25;;;;;;;;5110300;28;8829;-69
2022/10/14 09:04:18;;;;;;;;;31.00;27.00;;;;;;;;5110562;28;11510;-67
2022/10/14 09:06:45;;;;;;;;;26.75;25.50;;;;;;;;5110505;28;10220;-67
2022/10/14 09:09:16;;;;;;;;;24.50;22.50;;;;;;;;5109954;28;8880;-69
2022/10/14 09:11:43;;;;;;;;;20.50;19.50;;;;;;;;5110349;28;10808;-68
2022/10/14 09:14:15;;;;;;;;;28.00;24.00;;;;;;;;5110548;28;10001;-70
2022/10/14 09:16:41;;;;;;;;;26.25;25.00;;;;;;;;5110389;28;9859;-70
2022/10/14 09:19:27;;;;;;;;;27.00;23.25;;;;;;;;5110150;28;10568;-71
2022/10/14 09:21:53;;;;;;;;;25.25;25.00;;;;;;;;5102101;28;8902;-70
2022/10/14 09:24:20;;;;;;;;;24.25;21.50;;;;;;;;5088165;28;9842;-69
2022/10/14 09:27:12;;;;;;;;;23.50;23.50;;;;;;;;5088337;28;11487;-69
2022/10/14 09:29:46;;;;;;;;;23.75;23.00;;;;;;;;5084812;28;9420;-69
2022/10/14 09:32:14;;;;;;;;;27.00;24.67;;;;;;;;5086806;28;9474;-68
2022/10/14 09:34:43;;;;;;;;;21.33;20.33;;;;;;;;5087681;28;9083;-70
2022/10/14 09:37:09;;;;;;;;;21.25;20.25;;;;;;;;5087588;28;8864;-70
2022/10/14 09:39:36;;;;;;;;;21.00;19.00;;;;;;;;5087385;28;8788;-70
2022/10/14 09:42:01;;;;;;;;;21.00;20.00;;;;;;;;5092535;28;8871;-70
2022/10/14 09:44:27;;;;;;;;;17.00;16.67;;;;;;;;5108577;28;8916;-69
2022/10/14 09:47:02;;;;;;;;;17.67;16.33;;;;;;;;5109343;28;8871;-70
2022/10/14 09:49:38;;;;;;;;;24.25;22.25;;;;;;;;5109600;28;9555;-69
2022/10/14 09:52:04;;;;;;;;;18.00;18.00;;;;;;;;5110178;28;8800;-69
2022/10/14 09:54:30;;;;;;;;;22.33;21.00;;;;;;;;5109787;28;8817;-69
2022/10/14 09:57:02;;;;;;;;;22.00;21.00;;;;;;;;5110000;28;8809;-69
2022/10/14 09:59:28;;;;;;;;;21.75;20.25;;;;;;;;5109710;28;8806;-68
2022/10/14 10:01:55;;;;;;;;;22.00;20.33;;;;;;;;5109829;28;8839;-69
2022/10/14 10:04:34;;;;;;;;;23.50;20.50;;;;;;;;5109896;28;8827;-75
2022/10/14 10:07:01;;;;;;;;;17.50;17.50;;;;;;;;5102832;28;8815;-70
2022/10/14 10:09:26;;;;;;;;;19.25;17.50;;;;;;;;5087758;28;8772;-71
2022/10/14 10:11:52;;;;;;;;;19.33;18.33;;;;;;;;5091257;28;8824;-70
2022/10/14 10:14:23;;;;;;;;;20.33;18.00;;;;;;;;5092284;28;8859;-69
2022/10/14 10:17:14;;;;;;;;;17.75;17.25;;;;;;;;5091837;28;8808;-70
2022/10/14 10:19:42;;;;;;;;;16.75;16.75;;;;;;;;5085088;28;8912;-71
2022/10/14 10:22:21;;;;;;;;;19.75;18.75;;;;;;;;5091564;28;8855;-70
2022/10/14 10:24:48;;;;;;;;;18.20;17.00;;;;;;;;5091485;28;8819;-68
2022/10/14 10:27:40;;;;;;;;;18.00;18.00;;;;;;;;5091466;28;8796;-69
2022/10/14 10:30:26;;;;;;;;;20.00;18.60;;;;;;;;5090410;28;8812;-68
2022/10/14 10:32:58;;;;;;;;;17.20;17.00;;;;;;;;5092712;28;8900;-69
2022/10/14 10:35:31;;;;;;;;;19.00;17.40;;;;;;;;5092708;28;8876;-69
2022/10/14 10:38:10;;;;;;;;;18.25;17.25;;;;;;;;5091319;28;8903;-69
2022/10/14 10:40:38;;;;;;;;;19.00;18.60;;;;;;;;5092352;28;8989;-67
2022/10/14 10:43:19;;;;;;;;;14.40;14.40;;;;;;;;5105955;28;8881;-68
2022/10/14 10:46:03;;;;;;;;;20.25;20.00;;;;;;;;5113365;28;8770;-67
2022/10/14 10:48:34;;;;;;;;;19.25;17.50;;;;;;;;5093580;28;9639;-68
2022/10/14 10:51:04;;;;;;;;;18.75;17.00;;;;;;;;5092196;28;8775;-67
2022/10/14 10:53:41;;;;;;;;;18.75;18.50;;;;;;;;5090187;28;8951;-67
2022/10/14 10:56:24;;;;;;;;;18.75;18.25;;;;;;;;5092690;28;8868;-68
2022/10/14 10:58:53;;;;;;;;;17.25;15.00;;;;;;;;5092595;28;8873;-67
2022/10/14 11:01:35;;;;;;;;;17.50;16.75;;;;;;;;5091874;28;8894;-77
2022/10/14 11:04:00;;;;;;;;;19.50;18.75;;;;;;;;5092495;28;8784;-72
2022/10/14 11:12:14;;;;;;;;;23.00;18.50;;;;;;;;5097738;28;8931;-68
2022/10/14 11:14:58;;;;;;;;;18.50;17.75;;;;;;;;5112989;28;8897;-71
2022/10/14 11:17:23;;;;;;;;;23.00;22.67;;;;;;;;5110988;28;8828;-69
2022/10/14 11:20:04;;;;;;;;;19.00;18.67;;;;;;;;5112819;28;9245;-73
2022/10/14 11:25:21;;;;;;;;;20.33;18.00;;;;;;;;5068348;28;10030;-77
2022/10/14 11:28:06;;;;;;;;;18.00;17.00;;;;;;;;5069341;28;9360;-75
2022/10/14 11:30:37;;;;;;;;;24.75;21.50;;;;;;;;5068200;28;9127;-75
2022/10/14 11:33:11;;;;;;;;;17.00;16.67;;;;;;;;5068785;28;9608;-75
2022/10/14 11:35:36;;;;;;;;;23.33;20.00;;;;;;;;5070447;28;9223;-76
2022/10/14 11:38:14;;;;;;;;;18.67;16.67;;;;;;;;5067291;28;9498;-72
2022/10/14 11:40:43;;;;;;;;;16.00;14.67;;;;;;;;5069597;28;8822;-76
2022/10/14 11:43:27;;;;;;;;;19.00;17.33;;;;;;;;5083993;28;9288;-74
2022/10/14 11:46:00;;;;;;;;;19.67;16.33;;;;;;;;5090262;28;9309;-74
2022/10/14 11:48:37;;;;;;;;;17.50;14.00;;;;;;;;5076963;28;9427;-74
2022/10/14 11:51:12;;;;;;;;;18.75;16.50;;;;;;;;5070274;28;9498;-77
2022/10/14 11:53:42;;;;;;;;;16.25;15.00;;;;;;;;5069429;28;9612;-75
2022/10/14 11:56:28;;;;;;;;;14.67;12.00;;;;;;;;5069824;28;9570;-75
2022/10/14 11:58:55;;;;;;;;;16.00;14.00;;;;;;;;5069167;28;9308;-73
2022/10/14 12:01:25;;;;;;;;;14.00;14.00;;;;;;;;5079101;28;9330;-81
2022/10/14 12:04:01;;;;;;;;;17.50;14.75;;;;;;;;5090656;28;9564;-75
2022/10/14 12:06:34;;;;;;;;;15.25;13.50;;;;;;;;5076104;28;9388;-78
2022/10/14 12:09:04;;;;;;;;;12.00;12.00;;;;;;;;5063877;28;9557;-75
2022/10/14 12:11:42;;;;;;;;;12.50;12.50;;;;;;;;5056671;28;9352;-75
2022/10/14 12:14:10;;;;;;;;;21.00;13.00;;;;;;;;5063078;28;9599;-74
2022/10/14 12:16:38;;;;;;;;;16.00;13.25;;;;;;;;5059489;28;9673;-74
2022/10/14 12:19:08;;;;;;;;;16.75;14.50;;;;;;;;5062229;28;9547;-74
2022/10/14 12:21:33;;;;;;;;;15.00;14.00;;;;;;;;5062333;28;9546;-74
2022/10/14 12:24:03;;;;;;;;;11.00;9.00;;;;;;;;5062791;28;9562;-74
2022/10/14 12:26:44;;;;;;;;;13.25;12.25;;;;;;;;5069425;28;8814;-75
2022/10/14 12:29:12;;;;;;;;;19.50;15.75;;;;;;;;5068011;28;9524;-75
2022/10/14 12:31:38;;;;;;;;;17.25;15.25;;;;;;;;5069079;28;10046;-72
2022/10/14 12:34:10;;;;;;;;;14.75;14.00;;;;;;;;5068968;28;10671;-72
2022/10/14 12:36:36;;;;;;;;;24.00;17.00;;;;;;;;5068412;28;8902;-68
2022/10/14 12:39:16;;;;;;;;;16.00;15.75;;;;;;;;5059715;28;9677;-71
2022/10/14 12:41:48;;;;;;;;;17.50;16.50;;;;;;;;5061237;28;8976;-75
2022/10/14 12:44:17;;;;;;;;;14.75;14.75;;;;;;;;5062187;28;9740;-73
2022/10/14 12:46:44;;;;;;;;;18.75;17.50;;;;;;;;5072310;28;9880;-76
2022/10/14 12:49:16;;;;;;;;;18.50;17.25;;;;;;;;5063150;28;10062;-75
2022/10/14 12:51:52;;;;;;;;;18.50;15.50;;;;;;;;5049593;28;9743;-75
2022/10/14 12:54:18;;;;;;;;;16.25;15.50;;;;;;;;5054311;28;9779;-69
2022/10/14 12:56:53;;;;;;;;;21.75;20.00;;;;;;;;5059644;28;9712;-71
2022/10/14 12:59:29;;;;;;;;;17.25;17.00;;;;;;;;5056767;28;9801;-75
2022/10/14 13:01:57;;;;;;;;;17.75;17.75;;;;;;;;5058083;28;10784;-72
2022/10/14 13:04:22;;;;;;;;;18.75;18.00;;;;;;;;5057330;28;9949;-72
2022/10/14 13:07:06;;;;;;;;;21.75;16.75;;;;;;;;5058825;28;9884;-69
2022/10/14 13:09:34;;;;;;;;;23.25;16.00;;;;;;;;5057899;28;8833;-70
2022/10/14 13:11:59;;;;;;;;;20.25;18.00;;;;;;;;5061522;28;9913;-71
2022/10/14 13:14:30;;;;;;;;;23.50;16.75;;;;;;;;5056087;28;9923;-72
2022/10/14 13:16:56;;;;;;;;;16.25;16.00;;;;;;;;5057317;28;8806;-70
2022/10/14 13:19:33;;;;;;;;;15.75;15.00;;;;;;;;5056173;28;9961;-69
2022/10/14 13:22:02;;;;;;;;;14.25;13.75;;;;;;;;5055718;28;8840;-72
2022/10/14 13:24:32;;;;;;;;;16.75;16.25;;;;;;;;5054340;28;10312;-72
2022/10/14 13:27:05;;;;;;;;;18.50;15.75;;;;;;;;5056684;28;9981;-75
2022/10/14 13:29:49;;;;;;;;;13.50;13.50;;;;;;;;5057998;28;9808;-78
2022/10/14 13:32:17;;;;;;;;;17.75;17.00;;;;;;;;5057047;28;10044;-76
2022/10/14 13:34:42;;;;;;;;;12.75;12.75;;;;;;;;5057284;28;9913;-77
2022/10/14 13:37:20;;;;;;;;;19.00;17.75;;;;;;;;5063011;28;9581;-75
2022/10/14 13:39:45;;;;;;;;;16.00;14.00;;;;;;;;5067636;28;8806;-80
2022/10/14 13:42:16;;;;;;;;;17.00;13.50;;;;;;;;5075157;28;9950;-77
2022/10/14 13:44:42;;;;;;;;;15.75;14.25;;;;;;;;5089724;28;9011;-77
2022/10/14 13:47:11;;;;;;;;;16.75;14.50;;;;;;;;5070286;28;9985;-76
2022/10/14 13:49:38;;;;;;;;;21.50;17.25;;;;;;;;5070319;28;9974;-76
2022/10/14 13:52:06;;;;;;;;;17.75;13.50;;;;;;;;5068725;28;9961;-78
2022/10/14 13:54:32;;;;;;;;;14.00;13.00;;;;;;;;5072074;28;9933;-75
2022/10/14 13:56:59;;;;;;;;;11.75;11.75;;;;;;;;5072364;28;10349;-74
2022/10/14 13:59:25;;;;;;;;;17.00;15.00;;;;;;;;5071961;28;8802;-77
2022/10/14 14:01:53;;;;;;;;;15.50;14.75;;;;;;;;5070029;28;9892;-78
2022/10/14 14:04:23;;;;;;;;;15.00;15.00;;;;;;;;5072712;28;8814;-78
2022/10/14 14:06:49;;;;;;;;;14.00;14.00;;;;;;;;5070646;28;9706;-75
2022/10/14 14:09:21;;;;;;;;;13.50;13.25;;;;;;;;5071924;28;9756;-77
2022/10/14 14:11:48;;;;;;;;;16.50;14.75;;;;;;;;5077536;28;8799;-79
2022/10/14 14:14:36;;;;;;;;;15.50;15.00;;;;;;;;5092333;28;9854;-78
2022/10/14 14:17:03;;;;;;;;;19.25;16.00;;;;;;;;5093353;28;9792;-79
2022/10/14 14:19:33;;;;;;;;;16.25;15.25;;;;;;;;5061658;28;9832;-77
2022/10/14 14:22:05;;;;;;;;;15.50;14.50;;;;;;;;5060586;28;10821;-77
2022/10/14 14:24:33;;;;;;;;;16.75;16.75;;;;;;;;5069952;28;9853;-79
2022/10/14 14:26:58;;;;;;;;;15.00;13.75;;;;;;;;5070850;28;10094;-79
2022/10/14 14:29:25;;;;;;;;;15.75;14.50;;;;;;;;5071780;28;10008;-79
2022/10/14 14:31:51;;;;;;;;;19.25;17.00;;;;;;;;5071524;28;8849;-79
2022/10/14 14:34:17;;;;;;;;;16.50;15.25;;;;;;;;5070408;28;10137;-79
2022/10/14 14:36:43;;;;;;;;;15.00;14.00;;;;;;;;5082586;28;8796;-79
2022/10/14 14:39:28;;;;;;;;;15.00;14.00;;;;;;;;5090415;28;9954;-80
2022/10/14 14:41:57;;;;;;;;;15.75;14.75;;;;;;;;5057815;28;8800;-79
2022/10/14 14:44:24;;;;;;;;;17.00;14.50;;;;;;;;5092006;28;9706;-78
2022/10/14 14:46:55;;;;;;;;;18.25;17.50;;;;;;;;5087291;28;9876;-79
2022/10/14 14:49:31;;;;;;;;;18.25;15.00;;;;;;;;5088837;28;10000;-79
2022/10/14 14:51:57;;;;;;;;;16.25;15.50;;;;;;;;5087585;28;10415;-77
2022/10/14 14:54:22;;;;;;;;;16.25;16.25;;;;;;;;5089734;28;10135;-77
2022/10/14 14:56:54;;;;;;;;;16.75;14.75;;;;;;;;5088830;28;9538;-77
2022/10/14 14:59:19;;;;;;;;;14.75;14.75;;;;;;;;5088230;28;8815;-77
2022/10/14 15:01:44;;;;;;;;;15.00;14.50;;;;;;;;5088544;28;10137;-76
2022/10/14 15:04:20;;;;;;;;;18.75;14.00;;;;;;;;5089300;28;8808;-78
2022/10/14 15:06:49;;;;;;;;;16.00;15.00;;;;;;;;5106358;28;8811;-78
2022/10/14 15:09:19;;;;;;;;;16.00;14.75;;;;;;;;5091446;28;10080;-78
2022/10/14 15:11:48;;;;;;;;;18.25;14.50;;;;;;;;5088544;28;10355;-77
2022/10/14 15:14:34;;;;;;;;;13.50;11.75;;;;;;;;5091604;28;10064;-77
2022/10/14 15:16:59;;;;;;;;;16.00;15.50;;;;;;;;5091537;28;9935;-77
2022/10/14 15:19:29;;;;;;;;;15.25;14.75;;;;;;;;5091310;28;9986;-79
2022/10/14 15:22:08;;;;;;;;;19.50;15.50;;;;;;;;5091509;28;8889;-80
2022/10/14 15:24:33;;;;;;;;;16.00;13.75;;;;;;;;5091254;28;9996;-77
2022/10/14 15:26:59;;;;;;;;;14.75;13.25;;;;;;;;5082431;28;10689;-79
2022/10/14 15:29:24;;;;;;;;;15.25;14.00;;;;;;;;5059396;28;8882;-78
2022/10/14 15:32:04;;;;;;;;;16.25;14.50;;;;;;;;5061487;28;9557;-76
2022/10/14 15:34:34;;;;;;;;;14.25;12.00;;;;;;;;5058470;28;8825;-73
2022/10/14 15:36:59;;;;;;;;;20.25;13.50;;;;;;;;5061062;28;9734;-76
2022/10/14 15:39:25;;;;;;;;;12.50;12.50;;;;;;;;5058542;28;10921;-76
2022/10/14 15:41:50;;;;;;;;;13.75;12.75;;;;;;;;5062680;28;8855;-75
2022/10/14 15:44:15;;;;;;;;;13.50;12.50;;;;;;;;5060416;28;8795;-77
2022/10/14 15:49:29;;;;;;;;;18.00;13.00;;;;;;;;5060171;28;8786;-75
2022/10/14 15:51:54;;;;;;;;;19.00;17.50;;;;;;;;5058269;28;9908;-73
2022/10/14 15:54:20;;;;;;;;;14.00;11.50;;;;;;;;5059388;28;10351;-77
2022/10/14 15:56:47;;;;;;;;;16.25;14.25;;;;;;;;5061076;28;8924;-79
2022/10/14 15:59:14;;;;;;;;;15.00;13.50;;;;;;;;5062609;28;8806;-81
2022/10/14 16:01:41;;;;;;;;;19.00;16.00;;;;;;;;5061112;28;10043;-77
2022/10/14 16:04:13;;;;;;;;;16.00;13.75;;;;;;;;5059628;28;10059;-77
2022/10/14 16:06:38;;;;;;;;;14.50;11.00;;;;;;;;5057743;28;10215;-74
2022/10/14 16:09:03;;;;;;;;;21.50;19.00;;;;;;;;5057800;28;10099;-77
2022/10/14 16:11:29;;;;;;;;;15.50;13.75;;;;;;;;5057142;28;8839;-81
2022/10/14 16:13:55;;;;;;;;;16.25;12.75;;;;;;;;5060641;28;8842;-87
2022/10/14 16:16:24;;;;;;;;;12.75;12.75;;;;;;;;5058368;28;10118;-72
2022/10/14 16:18:49;;;;;;;;;12.75;11.75;;;;;;;;5057431;28;8840;-78
2022/10/14 16:21:15;;;;;;;;;18.75;14.00;;;;;;;;5058893;28;10217;-74
2022/10/14 16:23:42;;;;;;;;;14.75;12.50;;;;;;;;5057278;28;8829;-73
2022/10/14 16:26:07;;;;;;;;;14.75;12.00;;;;;;;;5057903;28;8868;-73
2022/10/14 16:28:32;;;;;;;;;11.00;11.00;;;;;;;;5059070;28;10147;-73
2022/10/14 16:30:58;;;;;;;;;12.25;11.00;;;;;;;;5057469;28;8786;-75
2022/10/14 16:33:23;;;;;;;;;12.50;10.75;;;;;;;;5058257;28;9528;-74
